Time;durP1;ratioP1;P1;durP2;ratioP2;P2;SDS_P1;SDS_P2;PMS_P1;PMS_P2;Temp;Humidity;BMP_temperature;BMP_pressure;BME280_temperature;BME280_humidity;BME280_pressure;Samples;Min_cycle;Max_cycle;Signal;HPM_P1;HPM_P2
2023/12/23 00:00:04;;;;;;;9.70;1.23;;;3.60;99.90;;;;;;5061847;28;20035;-69
2023/12/23 00:02:30;;;;;;;12.98;1.40;;;3.60;99.90;;;;;;5061374;28;20407;-67
2023/12/23 00:04:55;;;;;;;13.48;1.77;;;3.60;99.90;;;;;;5061915;28;20043;-67
2023/12/23 00:07:21;;;;;;;10.00;1.13;;;3.60;99.90;;;;;;5061555;28;20108;-68
2023/12/23 00:09:46;;;;;;;11.18;1.40;;;3.60;99.90;;;;;;5060490;28;20052;-70
2023/12/23 00:12:12;;;;;;;8.32;1.35;;;3.60;99.90;;;;;;5061741;28;20017;-69
2023/12/23 00:14:38;;;;;;;8.88;1.00;;;3.60;99.90;;;;;;5059106;28;20062;-69
2023/12/23 00:17:04;;;;;;;11.48;1.35;;;3.60;99.90;;;;;;5059502;28;20045;-69
2023/12/23 00:19:29;;;;;;;11.85;1.42;;;3.60;99.90;;;;;;5061379;28;20091;-67
2023/12/23 00:21:55;;;;;;;11.15;1.27;;;3.50;99.90;;;;;;5061734;28;20025;-69
2023/12/23 00:24:24;;;;;;;12.32;1.35;;;3.50;99.90;;;;;;5059932;28;20480;-69
2023/12/23 00:26:50;;;;;;;14.88;1.48;;;3.50;99.90;;;;;;5061436;28;20467;-67
2023/12/23 00:29:15;;;;;;;11.85;1.52;;;3.50;99.90;;;;;;5061323;28;20060;-70
2023/12/23 00:31:41;;;;;;;7.47;1.25;;;3.40;99.90;;;;;;5060418;28;20593;-69
2023/12/23 00:34:06;;;;;;;10.13;1.30;;;3.40;99.90;;;;;;5059928;28;20051;-68
2023/12/23 00:36:32;;;;;;;10.20;1.27;;;3.40;99.90;;;;;;5059926;28;20506;-70
2023/12/23 00:38:58;;;;;;;16.17;1.60;;;3.40;99.90;;;;;;5061153;28;20021;-68
2023/12/23 00:41:24;;;;;;;16.75;2.00;;;3.40;99.90;;;;;;5061198;28;20025;-67
2023/12/23 00:43:49;;;;;;;10.25;1.33;;;3.30;99.90;;;;;;5060583;28;20413;-67
2023/12/23 00:46:16;;;;;;;13.55;1.75;;;3.40;99.90;;;;;;5061252;28;20040;-69
2023/12/23 00:48:42;;;;;;;10.05;1.42;;;3.40;99.90;;;;;;5061400;28;20048;-68
2023/12/23 00:51:08;;;;;;;20.90;2.70;;;3.30;99.90;;;;;;5060861;28;20029;-69
2023/12/23 00:53:34;;;;;;;13.65;1.45;;;3.30;99.90;;;;;;5061128;28;20018;-68
2023/12/23 00:56:00;;;;;;;14.27;2.00;;;3.30;99.90;;;;;;5060009;28;20041;-67
2023/12/23 00:58:25;;;;;;;15.77;1.63;;;3.30;99.90;;;;;;5063072;28;20085;-68
2023/12/23 01:00:51;;;;;;;12.27;2.10;;;3.30;99.90;;;;;;5063985;28;20032;-69
2023/12/23 01:03:16;;;;;;;18.80;2.72;;;3.30;99.90;;;;;;5064805;28;20052;-69
2023/12/23 01:05:42;;;;;;;15.40;2.88;;;3.30;99.90;;;;;;5064216;28;20037;-70
2023/12/23 01:08:07;;;;;;;21.48;3.60;;;3.20;99.90;;;;;;5065378;28;20067;-70
2023/12/23 01:10:33;;;;;;;15.90;2.83;;;3.30;99.90;;;;;;5065185;28;20134;-68
2023/12/23 01:12:59;;;;;;;18.85;2.35;;;3.30;99.90;;;;;;5063788;28;20025;-68
2023/12/23 01:15:24;;;;;;;18.35;2.75;;;3.20;99.90;;;;;;5065103;28;20029;-70
2023/12/23 01:17:50;;;;;;;20.40;2.50;;;3.20;99.90;;;;;;5065000;28;20028;-68
2023/12/23 01:20:15;;;;;;;19.42;2.63;;;3.20;99.90;;;;;;5064741;28;20394;-69
2023/12/23 01:22:41;;;;;;;14.85;2.45;;;3.10;99.90;;;;;;5064522;28;20021;-68
2023/12/23 01:25:07;;;;;;;21.50;3.17;;;3.10;99.90;;;;;;5064901;28;20037;-68
2023/12/23 01:27:33;;;;;;;30.33;3.05;;;3.10;99.90;;;;;;5064740;28;20032;-68
2023/12/23 01:29:58;;;;;;;14.85;2.47;;;3.10;99.90;;;;;;5064727;28;20025;-69
2023/12/23 01:32:24;;;;;;;21.38;2.60;;;3.10;99.90;;;;;;5064706;28;20051;-68
2023/12/23 01:34:49;;;;;;;15.25;2.90;;;3.10;99.90;;;;;;5064599;28;20029;-68
2023/12/23 01:37:15;;;;;;;20.15;2.03;;;3.10;99.90;;;;;;5064585;28;20046;-69
2023/12/23 01:39:41;;;;;;;15.00;2.10;;;3.10;99.90;;;;;;5064306;28;20025;-68
2023/12/23 01:42:06;;;;;;;11.80;2.53;;;3.20;99.90;;;;;;5063643;28;20048;-69
2023/12/23 01:44:32;;;;;;;20.98;2.45;;;3.20;99.90;;;;;;5062810;28;20029;-68
2023/12/23 01:47:00;;;;;;;18.80;2.08;;;3.20;99.90;;;;;;5064289;28;20043;-69
2023/12/23 01:49:27;;;;;;;15.15;2.40;;;3.20;99.90;;;;;;5064267;28;20013;-70
2023/12/23 01:51:55;;;;;;;14.27;2.35;;;3.20;99.90;;;;;;5063449;28;20059;-69
2023/12/23 01:54:22;;;;;;;18.48;2.30;;;3.30;99.90;;;;;;5062211;28;20116;-69
2023/12/23 01:56:49;;;;;;;14.57;2.63;;;3.30;99.90;;;;;;5062957;28;20027;-68
2023/12/23 01:59:16;;;;;;;17.92;2.25;;;3.40;99.90;;;;;;5063281;28;20056;-70
2023/12/23 02:01:43;;;;;;;12.52;1.90;;;3.40;99.90;;;;;;5063038;28;20045;-70
2023/12/23 02:04:09;;;;;;;17.75;2.05;;;3.40;99.90;;;;;;5062620;28;20044;-68
2023/12/23 02:06:34;;;;;;;20.60;2.85;;;3.40;99.90;;;;;;5061614;28;20037;-70
2023/12/23 02:09:02;;;;;;;20.77;2.47;;;3.50;99.90;;;;;;5063511;28;20525;-69
2023/12/23 02:11:54;;;;;;;12.75;1.70;;;3.50;99.90;;;;;;5063506;28;20432;-68
2023/12/23 02:14:26;;;;;;;15.13;2.15;;;3.50;99.90;;;;;;5063568;28;20389;-69
2023/12/23 02:16:53;;;;;;;17.63;2.25;;;3.60;99.90;;;;;;5062911;28;20043;-70
2023/12/23 02:19:18;;;;;;;14.95;2.08;;;3.60;99.90;;;;;;5063240;28;20406;-68
2023/12/23 02:21:44;;;;;;;19.00;3.33;;;3.60;99.90;;;;;;5063643;28;20530;-69
2023/12/23 02:24:10;;;;;;;18.98;2.38;;;3.70;99.90;;;;;;5062445;28;20048;-69
2023/12/23 02:26:37;;;;;;;20.55;2.25;;;3.70;99.90;;;;;;5062933;28;20037;-68
2023/12/23 02:29:09;;;;;;;23.13;2.10;;;3.80;99.90;;;;;;5062407;28;20025;-67
2023/12/23 02:31:35;;;;;;;20.55;2.67;;;3.80;99.90;;;;;;5063156;28;20052;-68
2023/12/23 02:34:00;;;;;;;14.07;1.95;;;3.80;99.90;;;;;;5062412;28;20091;-70
2023/12/23 02:36:26;;;;;;;15.05;2.28;;;3.90;99.90;;;;;;5062316;28;20029;-70
2023/12/23 02:38:52;;;;;;;21.98;3.03;;;3.90;99.90;;;;;;5062812;28;20025;-68
2023/12/23 02:41:18;;;;;;;19.35;2.60;;;4.00;99.90;;;;;;5061424;28;20029;-69
2023/12/23 02:43:44;;;;;;;26.30;2.65;;;4.00;99.90;;;;;;5062774;28;20036;-68
2023/12/23 02:46:10;;;;;;;19.20;2.63;;;4.00;99.90;;;;;;5061918;28;20071;-69
2023/12/23 02:48:35;;;;;;;20.17;2.30;;;4.00;99.90;;;;;;5062727;28;20025;-69
2023/12/23 02:51:01;;;;;;;22.55;2.40;;;4.00;99.90;;;;;;5062360;28;20495;-68
2023/12/23 02:53:26;;;;;;;18.60;2.47;;;4.00;99.90;;;;;;5062631;28;20029;-68
2023/12/23 02:55:52;;;;;;;17.02;2.45;;;4.10;99.90;;;;;;5062478;28;20385;-68
2023/12/23 02:58:18;;;;;;;17.08;2.30;;;4.10;99.90;;;;;;5062623;28;20036;-71
2023/12/23 03:00:43;;;;;;;17.70;2.47;;;4.10;99.90;;;;;;5062861;28;20021;-71
2023/12/23 03:03:09;;;;;;;20.63;2.00;;;4.10;99.90;;;;;;5062359;28;20200;-71
2023/12/23 03:05:35;;;;;;;22.30;2.63;;;4.20;99.90;;;;;;5062705;28;20037;-69
2023/12/23 03:08:00;;;;;;;22.10;2.85;;;4.20;99.90;;;;;;5062091;28;20048;-68
2023/12/23 03:10:26;;;;;;;21.75;2.45;;;4.20;99.90;;;;;;5062319;28;20033;-68
2023/12/23 03:12:51;;;;;;;17.50;2.38;;;4.20;99.90;;;;;;5062111;28;20074;-69
2023/12/23 03:15:17;;;;;;;22.15;2.55;;;4.20;99.90;;;;;;5062216;28;20017;-69
2023/12/23 03:17:43;;;;;;;21.48;2.15;;;4.20;99.90;;;;;;5060824;28;20030;-69
2023/12/23 03:20:09;;;;;;;24.17;2.45;;;4.20;99.90;;;;;;5060002;28;20033;-70
2023/12/23 03:22:35;;;;;;;19.67;2.40;;;4.20;99.90;;;;;;5056085;28;20098;-69
2023/12/23 03:25:00;;;;;;;17.27;2.60;;;4.20;99.90;;;;;;5061850;28;20564;-70
2023/12/23 03:27:26;;;;;;;15.48;2.25;;;4.20;99.90;;;;;;5062154;28;20033;-71
2023/12/23 03:29:52;;;;;;;19.48;2.30;;;4.20;99.90;;;;;;5062155;28;20029;-70
2023/12/23 03:32:17;;;;;;;13.25;1.25;;;4.20;99.90;;;;;;5060531;28;20112;-71
2023/12/23 03:34:43;;;;;;;15.00;1.70;;;4.20;99.90;;;;;;5062038;28;20025;-70
2023/12/23 03:37:09;;;;;;;16.48;2.22;;;4.10;99.90;;;;;;5061939;28;20036;-69
2023/12/23 03:39:35;;;;;;;14.95;2.47;;;4.20;99.90;;;;;;5058786;28;20025;-68
2023/12/23 03:42:00;;;;;;;11.88;1.48;;;4.30;99.90;;;;;;5057819;28;20025;-67
2023/12/23 03:44:26;;;;;;;16.35;1.85;;;4.20;99.90;;;;;;5060499;28;20032;-71
2023/12/23 03:46:52;;;;;;;14.85;2.00;;;4.20;99.90;;;;;;5057618;28;20077;-69
2023/12/23 03:49:17;;;;;;;12.50;2.28;;;4.10;99.90;;;;;;5059551;28;20505;-68
2023/12/23 03:51:43;;;;;;;13.88;1.63;;;4.20;99.90;;;;;;5061484;28;20084;-70
2023/12/23 03:54:08;;;;;;;18.70;2.30;;;4.20;99.90;;;;;;5061766;28;20029;-70
2023/12/23 03:56:34;;;;;;;17.75;2.28;;;4.20;99.90;;;;;;5059813;28;20036;-69
2023/12/23 03:58:59;;;;;;;19.13;2.47;;;4.20;99.90;;;;;;5061371;28;20039;-70
2023/12/23 04:01:25;;;;;;;18.73;1.83;;;4.20;99.90;;;;;;5060237;28;20029;-69
2023/12/23 04:03:51;;;;;;;14.00;1.73;;;4.20;99.90;;;;;;5058778;28;20092;-69
2023/12/23 04:06:16;;;;;;;21.92;2.38;;;4.20;99.90;;;;;;5061525;28;20044;-69
2023/12/23 04:08:43;;;;;;;16.13;1.92;;;4.20;99.90;;;;;;5061480;28;20041;-69
2023/12/23 04:11:09;;;;;;;21.45;2.15;;;4.20;99.90;;;;;;5061391;28;20040;-69
2023/12/23 04:13:36;;;;;;;27.50;3.08;;;4.20;99.90;;;;;;5061188;28;20115;-68
2023/12/23 04:16:03;;;;;;;22.52;2.15;;;4.10;99.90;;;;;;5060769;28;20028;-68
2023/12/23 04:18:29;;;;;;;21.83;1.92;;;4.10;99.90;;;;;;5060133;28;20061;-71
2023/12/23 04:20:55;;;;;;;17.05;2.33;;;4.20;99.90;;;;;;5058422;28;20025;-69
2023/12/23 04:23:20;;;;;;;20.73;1.92;;;4.10;99.90;;;;;;5060688;28;20033;-69
2023/12/23 04:25:46;;;;;;;16.48;1.70;;;4.00;99.90;;;;;;5061053;28;20029;-69
2023/12/23 04:28:12;;;;;;;20.95;2.00;;;4.00;99.90;;;;;;5061130;28;20025;-70
2023/12/23 04:30:38;;;;;;;21.30;2.28;;;3.90;99.90;;;;;;5059851;28;20028;-71
2023/12/23 04:33:04;;;;;;;15.68;2.00;;;3.90;99.90;;;;;;5059610;28;20033;-69
2023/12/23 04:35:29;;;;;;;13.98;2.17;;;3.90;99.90;;;;;;5060723;28;20040;-70
2023/12/23 04:37:55;;;;;;;22.98;2.45;;;3.90;99.90;;;;;;5059449;28;20036;-69
2023/12/23 04:40:20;;;;;;;18.60;2.28;;;3.90;99.90;;;;;;5060809;28;20035;-68
2023/12/23 04:42:46;;;;;;;23.20;2.45;;;3.90;99.90;;;;;;5060811;28;20040;-70
2023/12/23 04:45:11;;;;;;;18.38;2.63;;;3.90;99.90;;;;;;5060655;28;20036;-69
2023/12/23 04:47:37;;;;;;;11.55;1.98;;;3.90;99.90;;;;;;5061241;28;20048;-68
2023/12/23 04:50:04;;;;;;;12.88;1.83;;;3.90;99.90;;;;;;5059868;28;20028;-69
2023/12/23 04:52:29;;;;;;;17.40;2.42;;;3.80;99.90;;;;;;5061320;28;20686;-69
2023/12/23 04:54:55;;;;;;;14.23;1.60;;;3.80;99.90;;;;;;5060698;28;20029;-68
2023/12/23 04:57:21;;;;;;;17.38;1.90;;;3.80;99.90;;;;;;5060986;28;20025;-68
2023/12/23 04:59:46;;;;;;;27.48;2.10;;;3.90;99.90;;;;;;5061182;28;20450;-70
2023/12/23 05:02:12;;;;;;;17.73;1.73;;;3.90;99.90;;;;;;5061039;28;20049;-70
2023/12/23 05:04:37;;;;;;;11.30;1.80;;;3.90;99.90;;;;;;5061245;28;20092;-67
2023/12/23 05:07:03;;;;;;;25.40;2.20;;;3.90;99.90;;;;;;5060955;28;20040;-67
2023/12/23 05:09:29;;;;;;;15.90;1.73;;;3.90;99.90;;;;;;5061053;28;20470;-66
2023/12/23 05:11:54;;;;;;;19.23;2.05;;;3.90;99.90;;;;;;5061190;28;20041;-68
2023/12/23 05:14:20;;;;;;;23.27;2.13;;;3.90;99.90;;;;;;5060987;28;20033;-67
2023/12/23 05:16:46;;;;;;;14.35;1.50;;;3.90;99.90;;;;;;5060994;28;20066;-69
2023/12/23 05:19:11;;;;;;;16.45;2.08;;;3.90;99.90;;;;;;5061328;28;20071;-70
2023/12/23 05:21:37;;;;;;;21.83;2.65;;;3.90;99.90;;;;;;5060655;28;20032;-67
2023/12/23 05:24:03;;;;;;;19.35;2.08;;;3.90;99.90;;;;;;5060530;28;20581;-69
2023/12/23 05:26:28;;;;;;;23.67;2.75;;;3.90;99.90;;;;;;5058333;28;20059;-68
2023/12/23 05:28:54;;;;;;;18.58;2.47;;;3.90;99.90;;;;;;5060508;28;20493;-68
2023/12/23 05:31:19;;;;;;;15.40;2.15;;;3.90;99.90;;;;;;5060695;28;20029;-67
2023/12/23 05:33:46;;;;;;;21.60;3.15;;;3.90;99.90;;;;;;5060780;28;20074;-69
2023/12/23 05:36:12;;;;;;;25.92;3.58;;;3.90;99.90;;;;;;5060582;28;20025;-68
2023/12/23 05:38:37;;;;;;;20.58;2.60;;;3.90;99.90;;;;;;5059378;28;20029;-70
2023/12/23 05:41:03;;;;;;;16.40;2.28;;;3.90;99.90;;;;;;5059714;28;20033;-67
2023/12/23 05:43:29;;;;;;;17.98;2.67;;;3.90;99.90;;;;;;5060451;28;20925;-67
2023/12/23 05:45:54;;;;;;;15.75;2.25;;;3.90;99.90;;;;;;5064625;28;20186;-67
2023/12/23 05:48:20;;;;;;;18.10;2.10;;;3.90;99.90;;;;;;5064383;28;20470;-68
2023/12/23 05:50:45;;;;;;;17.52;1.95;;;3.90;99.90;;;;;;5064522;28;20040;-69
2023/12/23 05:53:11;;;;;;;15.52;2.03;;;4.00;99.90;;;;;;5064075;28;20025;-69
2023/12/23 05:55:37;;;;;;;26.58;2.67;;;4.00;99.90;;;;;;5064452;28;20059;-69
2023/12/23 05:58:02;;;;;;;21.90;2.63;;;4.00;99.90;;;;;;5064393;28;20108;-68
2023/12/23 06:00:28;;;;;;;14.52;2.42;;;4.00;99.90;;;;;;5064218;28;20055;-70
2023/12/23 06:02:53;;;;;;;19.08;2.35;;;4.00;99.90;;;;;;5062525;28;20165;-69
2023/12/23 06:05:19;;;;;;;15.25;2.60;;;3.90;99.90;;;;;;5059664;28;20060;-67
2023/12/23 06:07:45;;;;;;;12.48;1.80;;;3.90;99.90;;;;;;5061958;28;20154;-67
2023/12/23 06:10:11;;;;;;;12.38;1.90;;;4.00;99.90;;;;;;5058283;28;20454;-68
2023/12/23 06:12:36;;;;;;;12.75;1.92;;;4.00;99.90;;;;;;5059305;28;20060;-68
2023/12/23 06:15:02;;;;;;;20.75;2.50;;;4.00;99.90;;;;;;5060095;28;20029;-68
2023/12/23 06:17:28;;;;;;;21.38;2.88;;;4.00;99.90;;;;;;5063604;28;20367;-70
2023/12/23 06:19:53;;;;;;;22.85;2.80;;;4.00;99.90;;;;;;5060178;28;20035;-69
2023/12/23 06:22:19;;;;;;;28.30;2.92;;;4.00;99.90;;;;;;5063442;28;20017;-69
2023/12/23 06:24:45;;;;;;;17.05;1.90;;;4.00;99.90;;;;;;5062361;28;20033;-69
2023/12/23 06:27:10;;;;;;;23.25;3.30;;;4.00;99.90;;;;;;5063471;28;20100;-68
2023/12/23 06:29:36;;;;;;;26.55;2.55;;;4.00;99.90;;;;;;5062041;28;20021;-67
2023/12/23 06:32:02;;;;;;;15.15;1.83;;;4.00;99.90;;;;;;5061379;28;20033;-67
2023/12/23 06:34:27;;;;;;;22.30;2.55;;;4.00;99.90;;;;;;5063581;28;20040;-68
2023/12/23 06:36:53;;;;;;;17.63;2.25;;;4.00;99.90;;;;;;5059785;28;20021;-67
2023/12/23 06:39:19;;;;;;;17.92;2.22;;;4.00;99.90;;;;;;5057914;28;20123;-66
2023/12/23 06:41:45;;;;;;;13.80;2.15;;;4.00;99.90;;;;;;5059543;28;20052;-68
2023/12/23 06:44:11;;;;;;;19.25;1.83;;;4.00;99.90;;;;;;5062343;28;20021;-71
2023/12/23 06:46:36;;;;;;;16.55;2.10;;;4.00;99.90;;;;;;5061341;28;20105;-66
2023/12/23 06:49:02;;;;;;;21.20;2.35;;;4.00;99.90;;;;;;5058980;28;20081;-67
2023/12/23 06:51:28;;;;;;;13.45;1.85;;;4.10;99.90;;;;;;5059919;28;20037;-67
2023/12/23 06:53:55;;;;;;;10.98;1.73;;;4.00;99.90;;;;;;5062796;28;20029;-68
2023/12/23 06:56:22;;;;;;;18.75;2.00;;;4.00;99.90;;;;;;5050280;28;20029;-66
2023/12/23 06:58:48;;;;;;;20.42;2.50;;;4.00;99.90;;;;;;5062960;28;20018;-71
2023/12/23 07:01:14;;;;;;;20.50;2.35;;;4.00;99.90;;;;;;5062531;28;20048;-67
2023/12/23 07:03:42;;;;;;;16.38;2.92;;;4.00;99.90;;;;;;5062581;28;20049;-70
2023/12/23 07:06:12;;;;;;;17.55;2.00;;;4.00;99.90;;;;;;5062781;28;20367;-68
2023/12/23 07:08:38;;;;;;;16.50;2.50;;;3.90;99.90;;;;;;5063095;28;20017;-68
2023/12/23 07:11:05;;;;;;;14.40;2.03;;;3.90;99.90;;;;;;5060075;28;20055;-68
2023/12/23 07:13:31;;;;;;;7.57;1.65;;;4.00;99.90;;;;;;5062481;28;20130;-66
2023/12/23 07:15:57;;;;;;;13.02;1.85;;;4.10;99.90;;;;;;5062360;28;20017;-67
2023/12/23 07:18:23;;;;;;;21.85;2.42;;;4.00;99.90;;;;;;5061393;28;20028;-68
2023/12/23 07:20:48;;;;;;;7.60;2.10;;;4.00;99.90;;;;;;5062868;28;20466;-67
2023/12/23 07:23:14;;;;;;;15.95;2.05;;;4.00;99.90;;;;;;5062572;28;20045;-69
2023/12/23 07:25:40;;;;;;;14.75;2.33;;;4.00;99.90;;;;;;5062844;28;20048;-67
2023/12/23 07:28:06;;;;;;;15.23;2.45;;;4.00;99.90;;;;;;5062699;28;20039;-68
2023/12/23 07:30:32;;;;;;;15.10;2.03;;;4.00;99.90;;;;;;5062616;28;20029;-68
2023/12/23 07:32:57;;;;;;;18.60;2.30;;;4.00;99.90;;;;;;5059861;28;20025;-68
2023/12/23 07:35:23;;;;;;;8.30;2.03;;;4.10;99.90;;;;;;5059334;28;20032;-67
2023/12/23 07:37:50;;;;;;;11.50;2.40;;;4.00;99.90;;;;;;5060141;28;20025;-67
2023/12/23 07:40:16;;;;;;;11.63;2.00;;;4.00;99.90;;;;;;5062284;28;20040;-70
2023/12/23 07:42:42;;;;;;;14.18;2.47;;;4.00;99.90;;;;;;5061172;28;20017;-69
2023/12/23 07:45:08;;;;;;;12.85;2.72;;;4.00;99.90;;;;;;5062365;28;20032;-69
2023/12/23 07:47:34;;;;;;;12.68;2.40;;;4.00;99.90;;;;;;5061864;28;20028;-66
2023/12/23 07:49:59;;;;;;;13.60;2.10;;;4.00;99.90;;;;;;5058991;28;20418;-68
2023/12/23 07:52:25;;;;;;;12.23;1.90;;;4.00;99.90;;;;;;5058799;28;20036;-66
2023/12/23 07:54:52;;;;;;;10.20;1.70;;;4.00;99.90;;;;;;5057122;28;20033;-67
2023/12/23 07:57:18;;;;;;;11.63;1.55;;;4.00;99.90;;;;;;5058865;28;20044;-68
2023/12/23 07:59:45;;;;;;;12.77;2.10;;;4.10;99.90;;;;;;5060413;28;20466;-69
2023/12/23 08:02:11;;;;;;;6.80;1.35;;;4.00;99.90;;;;;;5058334;28;20056;-72
2023/12/23 08:04:36;;;;;;;14.27;1.52;;;4.00;99.90;;;;;;5057697;28;20036;-68
2023/12/23 08:07:02;;;;;;;7.13;1.52;;;4.00;99.90;;;;;;5054909;28;20429;-67
2023/12/23 08:09:27;;;;;;;9.85;2.00;;;4.00;99.90;;;;;;5061837;28;20077;-67
2023/12/23 08:11:53;;;;;;;8.90;1.60;;;4.00;99.90;;;;;;5061731;28;20031;-66
2023/12/23 08:14:18;;;;;;;7.97;2.15;;;4.00;99.90;;;;;;5061694;28;20501;-69
2023/12/23 08:16:44;;;;;;;5.57;2.20;;;4.00;99.90;;;;;;5061856;28;20021;-67
2023/12/23 08:19:10;;;;;;;11.18;2.58;;;4.00;99.90;;;;;;5059626;28;20178;-66
2023/12/23 08:21:35;;;;;;;11.40;2.30;;;4.00;99.90;;;;;;5059644;28;20036;-68
2023/12/23 08:24:04;;;;;;;9.43;2.30;;;4.10;99.90;;;;;;5060445;28;20040;-67
2023/12/23 08:26:30;;;;;;;7.57;2.53;;;4.10;99.90;;;;;;5059305;28;20045;-68
2023/12/23 08:28:55;;;;;;;12.43;2.67;;;4.10;99.90;;;;;;5061483;28;20469;-65
2023/12/23 08:31:21;;;;;;;9.70;2.50;;;4.10;99.90;;;;;;5061287;28;20085;-68
2023/12/23 08:33:46;;;;;;;11.75;2.65;;;4.10;99.90;;;;;;5059422;28;20048;-66
2023/12/23 08:36:12;;;;;;;10.88;3.00;;;4.10;99.90;;;;;;5061410;28;20017;-66
2023/12/23 08:38:38;;;;;;;11.30;2.75;;;4.10;99.90;;;;;;5059220;28;20027;-67
2023/12/23 08:41:04;;;;;;;5.10;2.35;;;4.20;99.90;;;;;;5056482;28;20029;-66
2023/12/23 08:43:31;;;;;;;9.93;2.83;;;4.20;99.90;;;;;;5057808;28;20051;-67
2023/12/23 08:45:56;;;;;;;8.88;2.90;;;4.30;99.90;;;;;;5059575;28;20130;-67
2023/12/23 08:48:22;;;;;;;9.23;3.22;;;4.20;99.90;;;;;;5058504;28;20950;-66
2023/12/23 08:50:47;;;;;;;11.60;3.25;;;4.20;99.90;;;;;;5055731;28;20088;-68
2023/12/23 08:53:14;;;;;;;9.48;3.15;;;4.20;99.90;;;;;;5057325;28;20017;-67
2023/12/23 08:55:39;;;;;;;10.73;3.38;;;4.20;99.90;;;;;;5058174;28;20092;-68
2023/12/23 08:58:05;;;;;;;9.73;3.40;;;4.20;99.90;;;;;;5053182;28;20049;-66
2023/12/23 09:00:31;;;;;;;12.85;3.30;;;4.20;99.90;;;;;;5060183;28;20725;-67
2023/12/23 09:02:56;;;;;;;12.85;2.97;;;4.20;99.90;;;;;;5057966;28;20032;-65
2023/12/23 09:05:22;;;;;;;8.02;2.58;;;4.30;99.90;;;;;;5060503;28;20481;-68
2023/12/23 09:07:47;;;;;;;6.60;2.53;;;4.30;99.90;;;;;;5056641;28;20028;-68
2023/12/23 09:10:13;;;;;;;9.77;2.70;;;4.30;99.90;;;;;;5057107;28;20029;-69
2023/12/23 09:12:39;;;;;;;7.10;2.33;;;4.30;99.90;;;;;;5057289;28;20039;-66
2023/12/23 09:15:05;;;;;;;6.13;2.65;;;4.30;99.90;;;;;;5058552;28;20021;-66
2023/12/23 09:17:30;;;;;;;9.95;2.60;;;4.30;99.90;;;;;;5056131;28;20080;-68
2023/12/23 09:19:56;;;;;;;7.53;2.90;;;4.30;99.90;;;;;;5062381;28;20021;-66
2023/12/23 09:22:22;;;;;;;7.22;3.10;;;4.30;99.90;;;;;;5062267;28;20029;-68
2023/12/23 09:24:47;;;;;;;7.32;2.75;;;4.40;99.90;;;;;;5063738;28;20018;-67
2023/12/23 09:27:13;;;;;;;5.95;2.45;;;4.40;99.90;;;;;;5063613;28;20037;-69
2023/12/23 09:29:38;;;;;;;12.55;2.88;;;4.40;99.90;;;;;;5062376;28;20084;-67
2023/12/23 09:32:04;;;;;;;9.60;2.72;;;4.40;99.90;;;;;;5062899;28;20132;-68
2023/12/23 09:34:30;;;;;;;11.73;2.97;;;4.50;99.90;;;;;;5064488;28;20078;-67
2023/12/23 09:36:55;;;;;;;7.30;2.50;;;4.40;99.90;;;;;;5060492;28;20473;-68
2023/12/23 09:39:21;;;;;;;6.65;2.63;;;4.40;99.90;;;;;;5062420;28;20040;-67
2023/12/23 09:41:47;;;;;;;7.32;2.17;;;4.40;99.90;;;;;;5060452;28;20017;-67
2023/12/23 09:44:13;;;;;;;4.65;1.95;;;4.40;99.90;;;;;;5062474;28;20033;-67
2023/12/23 09:46:38;;;;;;;7.03;2.58;;;4.50;99.90;;;;;;5062213;28;20104;-67
2023/12/23 09:49:04;;;;;;;10.40;2.05;;;4.50;99.90;;;;;;5062953;28;20037;-66
2023/12/23 09:51:32;;;;;;;6.43;2.35;;;4.50;99.90;;;;;;5063009;28;20025;-67
2023/12/23 09:54:01;;;;;;;7.93;2.00;;;4.50;99.90;;;;;;5063272;28;20021;-65
2023/12/23 09:56:28;;;;;;;7.40;1.75;;;4.50;99.90;;;;;;5064055;28;20033;-68
2023/12/23 09:58:55;;;;;;;8.75;2.08;;;4.50;99.90;;;;;;5060827;28;20087;-69
2023/12/23 10:01:20;;;;;;;5.78;2.13;;;4.50;99.90;;;;;;5058726;28;20466;-67
2023/12/23 10:03:47;;;;;;;7.75;2.83;;;4.60;99.90;;;;;;5063104;28;20029;-67
2023/12/23 10:06:13;;;;;;;8.15;2.58;;;4.50;99.90;;;;;;5064108;28;20059;-68
2023/12/23 10:08:39;;;;;;;7.85;1.70;;;4.60;99.90;;;;;;5056575;28;20497;-66
2023/12/23 10:11:05;;;;;;;5.40;1.70;;;4.60;99.90;;;;;;5058326;28;20028;-66
2023/12/23 10:13:30;;;;;;;7.28;2.33;;;4.60;99.90;;;;;;5060333;28;20029;-67
2023/12/23 10:15:56;;;;;;;5.97;1.67;;;4.60;99.90;;;;;;5058304;28;20343;-65
2023/12/23 10:18:22;;;;;;;7.57;2.10;;;4.70;99.90;;;;;;5061236;28;20032;-67
2023/12/23 10:20:47;;;;;;;6.40;2.80;;;4.80;99.90;;;;;;5062014;28;20047;-67
2023/12/23 10:23:13;;;;;;;9.32;3.03;;;4.70;99.90;;;;;;5062524;28;21039;-67
2023/12/23 10:25:38;;;;;;;9.73;2.33;;;4.70;99.90;;;;;;5060995;28;20071;-68
2023/12/23 10:28:07;;;;;;;7.50;1.90;;;4.70;99.90;;;;;;5062991;28;20033;-67
2023/12/23 10:30:39;;;;;;;4.07;1.83;;;4.70;99.90;;;;;;5062429;28;20677;-66
2023/12/23 10:33:06;;;;;;;9.15;2.10;;;4.80;99.90;;;;;;5061390;28;20024;-67
2023/12/23 10:35:44;;;;;;;7.97;2.22;;;4.70;99.90;;;;;;5059565;28;20474;-67
2023/12/23 10:38:12;;;;;;;9.80;2.25;;;4.70;99.90;;;;;;5060550;28;20100;-69
2023/12/23 10:40:39;;;;;;;8.40;3.38;;;4.70;99.90;;;;;;5062455;28;20143;-67
2023/12/23 10:43:08;;;;;;;8.30;2.97;;;4.70;99.90;;;;;;5061612;28;20021;-68
2023/12/23 10:45:34;;;;;;;8.88;3.25;;;4.70;99.90;;;;;;5055955;28;20049;-67
2023/12/23 10:48:02;;;;;;;9.25;4.18;;;4.80;99.90;;;;;;5061845;28;20059;-68
2023/12/23 10:50:29;;;;;;;10.10;3.83;;;4.90;99.90;;;;;;5062059;28;20033;-67
2023/12/23 10:52:56;;;;;;;7.45;3.90;;;4.90;99.90;;;;;;5060600;28;20047;-67
2023/12/23 10:55:25;;;;;;;10.43;4.32;;;4.80;99.90;;;;;;5061288;28;20033;-67
2023/12/23 10:57:52;;;;;;;8.32;3.50;;;4.80;99.90;;;;;;5061241;28;20041;-67
2023/12/23 11:00:18;;;;;;;8.13;3.40;;;4.80;99.90;;;;;;5062191;28;20031;-69
2023/12/23 11:02:46;;;;;;;10.52;3.92;;;4.90;99.90;;;;;;5062393;28;20084;-67
2023/12/23 11:05:13;;;;;;;9.68;2.92;;;4.90;99.90;;;;;;5061247;28;20033;-66
2023/12/23 11:07:44;;;;;;;7.93;3.40;;;4.90;99.90;;;;;;5059152;28;20037;-66
2023/12/23 11:10:12;;;;;;;5.55;2.80;;;4.90;99.90;;;;;;5060755;28;20038;-68
2023/12/23 11:12:39;;;;;;;8.30;2.90;;;5.00;99.90;;;;;;5059161;28;20049;-66
2023/12/23 11:15:05;;;;;;;4.35;3.10;;;4.80;99.90;;;;;;5057192;28;20025;-64
2023/12/23 11:17:31;;;;;;;6.97;3.08;;;4.90;99.90;;;;;;5057789;28;20025;-67
2023/12/23 11:20:01;;;;;;;7.32;3.92;;;4.90;99.90;;;;;;5059030;28;20032;-68
2023/12/23 11:22:38;;;;;;;16.00;6.70;;;5.00;99.90;;;;;;5060623;28;20039;-67
2023/12/23 11:25:24;;;;;;;5.35;3.05;;;5.00;99.90;;;;;;5059177;28;20116;-66
2023/12/23 11:27:50;;;;;;;6.70;3.42;;;5.00;99.90;;;;;;5060968;28;20033;-66
2023/12/23 11:30:15;;;;;;;6.85;3.47;;;5.00;99.90;;;;;;5059995;28;20033;-66
2023/12/23 11:32:43;;;;;;;5.75;3.10;;;5.00;99.90;;;;;;5061653;28;20484;-67
2023/12/23 11:35:13;;;;;;;6.10;3.20;;;5.10;99.90;;;;;;5059242;28;20028;-66
2023/12/23 11:38:00;;;;;;;5.50;3.13;;;5.10;99.90;;;;;;5059214;28;20111;-67
2023/12/23 11:40:29;;;;;;;4.53;2.90;;;5.00;99.90;;;;;;5059945;28;20024;-65
2023/12/23 11:42:56;;;;;;;5.50;2.90;;;5.10;99.90;;;;;;5060832;28;20025;-67
2023/12/23 11:45:22;;;;;;;6.00;3.13;;;5.20;99.90;;;;;;5058486;28;20037;-70
2023/12/23 11:47:49;;;;;;;6.13;2.80;;;5.10;99.90;;;;;;5059727;28;20040;-66
2023/12/23 11:50:15;;;;;;;4.93;2.92;;;5.10;99.90;;;;;;5059564;28;20088;-67
2023/12/23 11:52:42;;;;;;;4.95;2.80;;;5.10;99.90;;;;;;5057692;28;20166;-68
2023/12/23 11:55:10;;;;;;;5.00;3.00;;;5.10;99.90;;;;;;5060090;28;20028;-66
2023/12/23 11:57:35;;;;;;;7.82;3.20;;;5.10;99.90;;;;;;5060502;28;20032;-68
2023/12/23 12:00:04;;;;;;;4.40;1.80;;;5.10;99.90;;;;;;5060073;28;20068;-67
2023/12/23 12:02:30;;;;;;;5.82;1.67;;;5.20;99.90;;;;;;5058761;28;20041;-68
2023/12/23 12:04:55;;;;;;;4.45;2.45;;;5.20;99.90;;;;;;5059742;28;20389;-67
2023/12/23 12:07:22;;;;;;;4.10;2.30;;;5.30;99.90;;;;;;5058110;28;20056;-68
2023/12/23 12:09:49;;;;;;;2.88;1.60;;;5.30;99.90;;;;;;5059653;28;20021;-67
2023/12/23 12:12:14;;;;;;;3.00;2.00;;;5.40;99.90;;;;;;5058556;28;20029;-67
2023/12/23 12:14:40;;;;;;;2.65;1.60;;;5.30;99.90;;;;;;5060367;28;20040;-67
2023/12/23 12:17:09;;;;;;;3.85;2.28;;;5.30;99.90;;;;;;5059211;28;20036;-69
2023/12/23 12:19:37;;;;;;;3.75;1.95;;;5.20;99.90;;;;;;5057704;28;20099;-66
2023/12/23 12:22:03;;;;;;;4.65;2.17;;;5.30;99.90;;;;;;5059128;28;20033;-66
2023/12/23 12:24:30;;;;;;;4.22;2.40;;;5.20;99.90;;;;;;5058185;28;20029;-66
2023/12/23 12:26:58;;;;;;;5.22;2.70;;;5.30;99.90;;;;;;5059432;28;20036;-68
2023/12/23 12:29:24;;;;;;;6.88;3.15;;;5.30;99.90;;;;;;5056791;28;20029;-67
2023/12/23 12:31:51;;;;;;;5.90;2.85;;;5.30;99.90;;;;;;5056994;28;20036;-67
2023/12/23 12:34:16;;;;;;;5.15;2.75;;;5.30;99.90;;;;;;5055498;28;20444;-68
2023/12/23 12:36:43;;;;;;;8.65;3.17;;;5.40;99.90;;;;;;5058719;28;20109;-68
2023/12/23 12:39:09;;;;;;;4.05;2.78;;;5.40;99.90;;;;;;5056297;28;20032;-66
2023/12/23 12:41:37;;;;;;;4.38;2.45;;;5.40;99.90;;;;;;5058286;28;20112;-67
2023/12/23 12:44:07;;;;;;;6.63;2.88;;;5.40;99.90;;;;;;5055845;28;20064;-67